sensor_id;sensor_type;location;lat;lon;timestamp;P1;durP1;ratioP1;P2;durP2;ratioP2
37455;SDS011;23316;50.718;7.328;2022-07-26T00:00:46;2.08;;;0.75;;
37455;SDS011;23316;50.718;7.328;2022-07-26T00:03:15;2.00;;;0.68;;
37455;SDS011;23316;50.718;7.328;2022-07-26T00:05:43;7.07;;;1.33;;
37455;SDS011;23316;50.718;7.328;2022-07-26T00:08:10;3.38;;;1.00;;
37455;SDS011;23316;50.718;7.328;2022-07-26T00:10:38;8.20;;;1.25;;
37455;SDS011;23316;50.718;7.328;2022-07-26T00:13:08;5.00;;;0.88;;
37455;SDS011;23316;50.718;7.328;2022-07-26T00:15:35;5.78;;;0.90;;
37455;SDS011;23316;50.718;7.328;2022-07-26T00:18:03;6.60;;;1.05;;
37455;SDS011;23316;50.718;7.328;2022-07-26T00:20:33;3.60;;;1.05;;
37455;SDS011;23316;50.718;7.328;2022-07-26T00:23:00;5.38;;;1.00;;
37455;SDS011;23316;50.718;7.328;2022-07-26T00:25:28;2.40;;;0.88;;
37455;SDS011;23316;50.718;7.328;2022-07-26T00:27:55;2.95;;;0.82;;
37455;SDS011;23316;50.718;7.328;2022-07-26T00:30:23;5.22;;;1.00;;
37455;SDS011;23316;50.718;7.328;2022-07-26T00:32:51;3.42;;;1.10;;
37455;SDS011;23316;50.718;7.328;2022-07-26T00:35:19;3.28;;;0.80;;
37455;SDS011;23316;50.718;7.328;2022-07-26T00:37:48;6.00;;;0.73;;
37455;SDS011;23316;50.718;7.328;2022-07-26T00:40:16;9.45;;;0.90;;
37455;SDS011;23316;50.718;7.328;2022-07-26T00:42:43;4.00;;;0.95;;
37455;SDS011;23316;50.718;7.328;2022-07-26T00:45:11;2.92;;;1.00;;
37455;SDS011;23316;50.718;7.328;2022-07-26T00:47:39;5.93;;;1.23;;
37455;SDS011;23316;50.718;7.328;2022-07-26T00:50:09;2.40;;;0.85;;
37455;SDS011;23316;50.718;7.328;2022-07-26T00:52:39;3.63;;;1.08;;
37455;SDS011;23316;50.718;7.328;2022-07-26T00:55:09;4.07;;;1.35;;
37455;SDS011;23316;50.718;7.328;2022-07-26T00:57:38;6.15;;;0.80;;
37455;SDS011;23316;50.718;7.328;2022-07-26T01:00:07;2.58;;;0.70;;
37455;SDS011;23316;50.718;7.328;2022-07-26T01:02:36;5.07;;;0.93;;
37455;SDS011;23316;50.718;7.328;2022-07-26T01:05:04;4.45;;;1.00;;
37455;SDS011;23316;50.718;7.328;2022-07-26T01:07:33;5.30;;;1.13;;
37455;SDS011;23316;50.718;7.328;2022-07-26T01:10:02;7.13;;;1.15;;
37455;SDS011;23316;50.718;7.328;2022-07-26T01:12:32;4.10;;;0.93;;
37455;SDS011;23316;50.718;7.328;2022-07-26T01:14:59;2.60;;;0.80;;
37455;SDS011;23316;50.718;7.328;2022-07-26T01:17:27;4.07;;;0.75;;
37455;SDS011;23316;50.718;7.328;2022-07-26T01:19:54;3.97;;;0.98;;
37455;SDS011;23316;50.718;7.328;2022-07-26T01:22:23;7.00;;;0.75;;
37455;SDS011;23316;50.718;7.328;2022-07-26T01:24:50;4.20;;;0.98;;
37455;SDS011;23316;50.718;7.328;2022-07-26T01:27:18;1.25;;;0.55;;
37455;SDS011;23316;50.718;7.328;2022-07-26T01:29:46;1.88;;;0.60;;
37455;SDS011;23316;50.718;7.328;2022-07-26T01:32:14;1.63;;;0.68;;
37455;SDS011;23316;50.718;7.328;2022-07-26T01:34:41;3.38;;;0.80;;
37455;SDS011;23316;50.718;7.328;2022-07-26T01:37:09;3.50;;;0.65;;
37455;SDS011;23316;50.718;7.328;2022-07-26T01:39:38;3.67;;;0.77;;
37455;SDS011;23316;50.718;7.328;2022-07-26T01:42:05;5.93;;;0.70;;
37455;SDS011;23316;50.718;7.328;2022-07-26T01:44:33;3.92;;;0.80;;
37455;SDS011;23316;50.718;7.328;2022-07-26T01:47:01;4.25;;;0.93;;
37455;SDS011;23316;50.718;7.328;2022-07-26T01:49:29;1.95;;;0.70;;
37455;SDS011;23316;50.718;7.328;2022-07-26T01:51:56;1.05;;;0.50;;
37455;SDS011;23316;50.718;7.328;2022-07-26T01:54:24;4.03;;;0.90;;
37455;SDS011;23316;50.718;7.328;2022-07-26T01:56:53;3.97;;;1.08;;
37455;SDS011;23316;50.718;7.328;2022-07-26T01:59:20;4.85;;;0.88;;
37455;SDS011;23316;50.718;7.328;2022-07-26T02:01:47;2.45;;;0.80;;
37455;SDS011;23316;50.718;7.328;2022-07-26T02:04:15;1.95;;;0.60;;
37455;SDS011;23316;50.718;7.328;2022-07-26T02:06:56;2.28;;;0.80;;
37455;SDS011;23316;50.718;7.328;2022-07-26T02:09:24;2.58;;;0.80;;
37455;SDS011;23316;50.718;7.328;2022-07-26T02:11:53;6.70;;;1.33;;
37455;SDS011;23316;50.718;7.328;2022-07-26T02:14:20;2.40;;;0.80;;
37455;SDS011;23316;50.718;7.328;2022-07-26T02:16:47;2.50;;;0.95;;
37455;SDS011;23316;50.718;7.328;2022-07-26T02:19:15;3.00;;;0.85;;
37455;SDS011;23316;50.718;7.328;2022-07-26T02:21:43;6.47;;;1.60;;
37455;SDS011;23316;50.718;7.328;2022-07-26T02:24:10;3.33;;;1.00;;
37455;SDS011;23316;50.718;7.328;2022-07-26T02:26:38;2.20;;;0.88;;
37455;SDS011;23316;50.718;7.328;2022-07-26T02:29:06;3.47;;;1.30;;
37455;SDS011;23316;50.718;7.328;2022-07-26T02:31:34;4.05;;;1.00;;
37455;SDS011;23316;50.718;7.328;2022-07-26T02:34:01;5.85;;;1.40;;
37455;SDS011;23316;50.718;7.328;2022-07-26T02:36:29;8.15;;;1.42;;
37455;SDS011;23316;50.718;7.328;2022-07-26T02:38:56;3.15;;;1.42;;
37455;SDS011;23316;50.718;7.328;2022-07-26T02:41:24;2.22;;;0.98;;
37455;SDS011;23316;50.718;7.328;2022-07-26T02:43:51;3.70;;;0.93;;
37455;SDS011;23316;50.718;7.328;2022-07-26T02:46:20;7.00;;;1.02;;
37455;SDS011;23316;50.718;7.328;2022-07-26T02:48:47;4.05;;;0.93;;
37455;SDS011;23316;50.718;7.328;2022-07-26T02:51:15;3.08;;;1.10;;
37455;SDS011;23316;50.718;7.328;2022-07-26T02:53:42;3.60;;;1.55;;
37455;SDS011;23316;50.718;7.328;2022-07-26T02:56:10;5.07;;;1.08;;
37455;SDS011;23316;50.718;7.328;2022-07-26T02:58:37;2.97;;;1.10;;
37455;SDS011;23316;50.718;7.328;2022-07-26T03:01:05;2.40;;;0.93;;
37455;SDS011;23316;50.718;7.328;2022-07-26T03:03:34;3.80;;;1.08;;
37455;SDS011;23316;50.718;7.328;2022-07-26T03:06:01;2.58;;;0.90;;
37455;SDS011;23316;50.718;7.328;2022-07-26T03:08:29;1.52;;;0.82;;
37455;SDS011;23316;50.718;7.328;2022-07-26T03:10:56;11.18;;;1.48;;
37455;SDS011;23316;50.718;7.328;2022-07-26T03:13:24;3.33;;;1.20;;
37455;SDS011;23316;50.718;7.328;2022-07-26T03:15:52;1.90;;;0.70;;
37455;SDS011;23316;50.718;7.328;2022-07-26T03:18:20;5.10;;;1.50;;
37455;SDS011;23316;50.718;7.328;2022-07-26T03:20:49;4.30;;;1.75;;
37455;SDS011;23316;50.718;7.328;2022-07-26T03:23:16;3.28;;;1.10;;
37455;SDS011;23316;50.718;7.328;2022-07-26T03:25:44;4.60;;;1.25;;
37455;SDS011;23316;50.718;7.328;2022-07-26T03:28:11;1.55;;;0.80;;
37455;SDS011;23316;50.718;7.328;2022-07-26T03:30:39;2.75;;;0.73;;
37455;SDS011;23316;50.718;7.328;2022-07-26T03:33:07;2.55;;;1.00;;
37455;SDS011;23316;50.718;7.328;2022-07-26T03:35:35;3.20;;;0.70;;
37455;SDS011;23316;50.718;7.328;2022-07-26T03:38:05;3.28;;;1.10;;
37455;SDS011;23316;50.718;7.328;2022-07-26T03:40:33;2.15;;;0.90;;
37455;SDS011;23316;50.718;7.328;2022-07-26T03:43:00;4.88;;;1.10;;
37455;SDS011;23316;50.718;7.328;2022-07-26T03:45:27;2.72;;;1.00;;
37455;SDS011;23316;50.718;7.328;2022-07-26T03:47:55;2.45;;;0.88;;
37455;SDS011;23316;50.718;7.328;2022-07-26T03:50:22;1.52;;;0.63;;
37455;SDS011;23316;50.718;7.328;2022-07-26T03:52:50;5.07;;;1.77;;
37455;SDS011;23316;50.718;7.328;2022-07-26T03:55:19;3.75;;;1.25;;
37455;SDS011;23316;50.718;7.328;2022-07-26T03:58:03;5.03;;;1.73;;
37455;SDS011;23316;50.718;7.328;2022-07-26T04:00:31;2.90;;;1.10;;
37455;SDS011;23316;50.718;7.328;2022-07-26T04:02:58;2.78;;;0.98;;
37455;SDS011;23316;50.718;7.328;2022-07-26T04:05:26;2.17;;;1.20;;
37455;SDS011;23316;50.718;7.328;2022-07-26T04:07:53;2.72;;;1.00;;
37455;SDS011;23316;50.718;7.328;2022-07-26T04:10:22;3.55;;;1.10;;
37455;SDS011;23316;50.718;7.328;2022-07-26T04:12:50;1.48;;;0.70;;
37455;SDS011;23316;50.718;7.328;2022-07-26T04:15:17;4.13;;;0.90;;
37455;SDS011;23316;50.718;7.328;2022-07-26T04:17:46;1.05;;;0.65;;
37455;SDS011;23316;50.718;7.328;2022-07-26T04:20:14;3.90;;;0.85;;
37455;SDS011;23316;50.718;7.328;2022-07-26T04:22:41;1.88;;;0.63;;
37455;SDS011;23316;50.718;7.328;2022-07-26T04:25:09;2.08;;;0.90;;
37455;SDS011;23316;50.718;7.328;2022-07-26T04:27:38;1.13;;;0.60;;
37455;SDS011;23316;50.718;7.328;2022-07-26T04:30:06;2.42;;;1.00;;
37455;SDS011;23316;50.718;7.328;2022-07-26T04:32:34;1.13;;;0.82;;
37455;SDS011;23316;50.718;7.328;2022-07-26T04:35:02;3.28;;;0.98;;
37455;SDS011;23316;50.718;7.328;2022-07-26T04:37:30;3.33;;;0.80;;
37455;SDS011;23316;50.718;7.328;2022-07-26T04:42:32;3.10;;;0.90;;
37455;SDS011;23316;50.718;7.328;2022-07-26T04:45:01;2.55;;;0.70;;
37455;SDS011;23316;50.718;7.328;2022-07-26T04:47:29;1.33;;;0.70;;
37455;SDS011;23316;50.718;7.328;2022-07-26T04:49:56;5.95;;;1.05;;
37455;SDS011;23316;50.718;7.328;2022-07-26T04:52:24;3.00;;;0.95;;
37455;SDS011;23316;50.718;7.328;2022-07-26T04:54:51;3.92;;;1.38;;
37455;SDS011;23316;50.718;7.328;2022-07-26T04:57:19;3.15;;;0.98;;
37455;SDS011;23316;50.718;7.328;2022-07-26T04:59:46;1.63;;;1.00;;
37455;SDS011;23316;50.718;7.328;2022-07-26T05:02:15;2.53;;;1.05;;
37455;SDS011;23316;50.718;7.328;2022-07-26T05:04:43;3.00;;;1.33;;
37455;SDS011;23316;50.718;7.328;2022-07-26T05:07:10;6.55;;;1.77;;
37455;SDS011;23316;50.718;7.328;2022-07-26T05:09:38;4.25;;;1.33;;
37455;SDS011;23316;50.718;7.328;2022-07-26T05:12:05;6.30;;;1.40;;
37455;SDS011;23316;50.718;7.328;2022-07-26T05:14:34;4.97;;;1.20;;
37455;SDS011;23316;50.718;7.328;2022-07-26T05:17:02;6.20;;;1.38;;
37455;SDS011;23316;50.718;7.328;2022-07-26T05:19:31;4.35;;;1.40;;
37455;SDS011;23316;50.718;7.328;2022-07-26T05:21:59;4.05;;;1.40;;
37455;SDS011;23316;50.718;7.328;2022-07-26T05:24:26;3.83;;;1.27;;
37455;SDS011;23316;50.718;7.328;2022-07-26T05:26:54;3.50;;;1.30;;
37455;SDS011;23316;50.718;7.328;2022-07-26T05:29:22;1.83;;;1.05;;
37455;SDS011;23316;50.718;7.328;2022-07-26T05:31:51;4.47;;;1.30;;
37455;SDS011;23316;50.718;7.328;2022-07-26T05:34:19;4.75;;;1.40;;
37455;SDS011;23316;50.718;7.328;2022-07-26T05:36:51;6.63;;;1.30;;
37455;SDS011;23316;50.718;7.328;2022-07-26T05:39:19;4.00;;;1.40;;
37455;SDS011;23316;50.718;7.328;2022-07-26T05:41:47;5.53;;;1.50;;
37455;SDS011;23316;50.718;7.328;2022-07-26T05:44:18;3.50;;;1.25;;
37455;SDS011;23316;50.718;7.328;2022-07-26T05:46:48;2.60;;;1.10;;
37455;SDS011;23316;50.718;7.328;2022-07-26T05:49:17;4.57;;;1.55;;
37455;SDS011;23316;50.718;7.328;2022-07-26T05:51:46;2.78;;;1.15;;
37455;SDS011;23316;50.718;7.328;2022-07-26T05:54:16;4.13;;;1.10;;
37455;SDS011;23316;50.718;7.328;2022-07-26T05:56:45;5.28;;;1.60;;
37455;SDS011;23316;50.718;7.328;2022-07-26T05:59:15;4.82;;;1.60;;
37455;SDS011;23316;50.718;7.328;2022-07-26T06:01:43;3.22;;;1.38;;
37455;SDS011;23316;50.718;7.328;2022-07-26T06:04:11;5.15;;;1.45;;
37455;SDS011;23316;50.718;7.328;2022-07-26T06:06:40;11.00;;;2.45;;
37455;SDS011;23316;50.718;7.328;2022-07-26T06:09:10;5.35;;;1.80;;
37455;SDS011;23316;50.718;7.328;2022-07-26T06:11:40;4.22;;;1.50;;
37455;SDS011;23316;50.718;7.328;2022-07-26T06:14:09;5.10;;;1.90;;
37455;SDS011;23316;50.718;7.328;2022-07-26T06:16:38;4.72;;;1.60;;
37455;SDS011;23316;50.718;7.328;2022-07-26T06:19:06;6.10;;;1.75;;
37455;SDS011;23316;50.718;7.328;2022-07-26T06:21:35;5.88;;;2.05;;
37455;SDS011;23316;50.718;7.328;2022-07-26T06:24:03;6.70;;;1.65;;
37455;SDS011;23316;50.718;7.328;2022-07-26T06:26:32;6.82;;;1.88;;
37455;SDS011;23316;50.718;7.328;2022-07-26T06:29:02;5.15;;;1.77;;
37455;SDS011;23316;50.718;7.328;2022-07-26T06:31:30;5.30;;;1.60;;
37455;SDS011;23316;50.718;7.328;2022-07-26T06:33:59;9.82;;;1.52;;
37455;SDS011;23316;50.718;7.328;2022-07-26T06:36:28;3.80;;;1.50;;
37455;SDS011;23316;50.718;7.328;2022-07-26T06:38:57;3.17;;;1.60;;
37455;SDS011;23316;50.718;7.328;2022-07-26T06:41:26;5.07;;;1.77;;
37455;SDS011;23316;50.718;7.328;2022-07-26T06:43:55;5.18;;;1.80;;
37455;SDS011;23316;50.718;7.328;2022-07-26T06:46:25;4.60;;;1.63;;
37455;SDS011;23316;50.718;7.328;2022-07-26T06:48:53;5.22;;;1.67;;
37455;SDS011;23316;50.718;7.328;2022-07-26T06:51:21;8.57;;;2.10;;
37455;SDS011;23316;50.718;7.328;2022-07-26T06:54:07;6.47;;;2.08;;
37455;SDS011;23316;50.718;7.328;2022-07-26T06:56:35;7.75;;;2.35;;
37455;SDS011;23316;50.718;7.328;2022-07-26T06:59:04;8.30;;;2.67;;
37455;SDS011;23316;50.718;7.328;2022-07-26T07:01:34;6.72;;;2.58;;
37455;SDS011;23316;50.718;7.328;2022-07-26T07:04:01;10.77;;;4.05;;
37455;SDS011;23316;50.718;7.328;2022-07-26T07:06:29;8.45;;;3.70;;
37455;SDS011;23316;50.718;7.328;2022-07-26T07:08:57;9.82;;;4.07;;
37455;SDS011;23316;50.718;7.328;2022-07-26T07:11:24;10.68;;;3.78;;
37455;SDS011;23316;50.718;7.328;2022-07-26T07:13:52;12.20;;;4.00;;
37455;SDS011;23316;50.718;7.328;2022-07-26T07:16:19;12.48;;;4.53;;
37455;SDS011;23316;50.718;7.328;2022-07-26T07:18:48;9.85;;;3.95;;
37455;SDS011;23316;50.718;7.328;2022-07-26T07:21:15;8.80;;;3.45;;
37455;SDS011;23316;50.718;7.328;2022-07-26T07:23:43;8.43;;;3.50;;
37455;SDS011;23316;50.718;7.328;2022-07-26T07:26:10;12.48;;;3.67;;
37455;SDS011;23316;50.718;7.328;2022-07-26T07:28:38;12.30;;;3.78;;
37455;SDS011;23316;50.718;7.328;2022-07-26T07:31:05;13.13;;;4.53;;
37455;SDS011;23316;50.718;7.328;2022-07-26T07:33:33;9.32;;;3.38;;
37455;SDS011;23316;50.718;7.328;2022-07-26T07:36:02;16.52;;;3.78;;
37455;SDS011;23316;50.718;7.328;2022-07-26T07:38:30;7.82;;;3.00;;
37455;SDS011;23316;50.718;7.328;2022-07-26T07:40:57;9.63;;;3.60;;
37455;SDS011;23316;50.718;7.328;2022-07-26T07:43:25;10.95;;;4.13;;
37455;SDS011;23316;50.718;7.328;2022-07-26T07:45:52;11.15;;;3.63;;
37455;SDS011;23316;50.718;7.328;2022-07-26T07:48:20;9.68;;;3.58;;
37455;SDS011;23316;50.718;7.328;2022-07-26T07:50:47;11.98;;;4.18;;
37455;SDS011;23316;50.718;7.328;2022-07-26T07:53:16;14.57;;;3.67;;
37455;SDS011;23316;50.718;7.328;2022-07-26T07:55:43;10.98;;;3.45;;
37455;SDS011;23316;50.718;7.328;2022-07-26T07:58:11;8.65;;;3.60;;
37455;SDS011;23316;50.718;7.328;2022-07-26T08:00:38;14.73;;;4.20;;
37455;SDS011;23316;50.718;7.328;2022-07-26T08:03:06;13.25;;;3.67;;
37455;SDS011;23316;50.718;7.328;2022-07-26T08:05:33;9.10;;;3.40;;
37455;SDS011;23316;50.718;7.328;2022-07-26T08:08:01;6.47;;;3.38;;
37455;SDS011;23316;50.718;7.328;2022-07-26T08:10:31;8.48;;;3.40;;
37455;SDS011;23316;50.718;7.328;2022-07-26T08:12:58;7.78;;;2.92;;
37455;SDS011;23316;50.718;7.328;2022-07-26T08:15:26;6.78;;;3.03;;
37455;SDS011;23316;50.718;7.328;2022-07-26T08:17:53;12.27;;;4.97;;
37455;SDS011;23316;50.718;7.328;2022-07-26T08:20:21;11.35;;;4.05;;
37455;SDS011;23316;50.718;7.328;2022-07-26T08:22:48;17.30;;;4.80;;
37455;SDS011;23316;50.718;7.328;2022-07-26T08:25:16;9.63;;;3.78;;
37455;SDS011;23316;50.718;7.328;2022-07-26T08:27:45;10.85;;;3.53;;
37455;SDS011;23316;50.718;7.328;2022-07-26T08:30:12;7.55;;;3.25;;
37455;SDS011;23316;50.718;7.328;2022-07-26T08:32:40;11.32;;;3.95;;
37455;SDS011;23316;50.718;7.328;2022-07-26T08:35:08;11.70;;;3.90;;
37455;SDS011;23316;50.718;7.328;2022-07-26T08:37:36;9.07;;;3.72;;
37455;SDS011;23316;50.718;7.328;2022-07-26T08:40:04;7.50;;;3.47;;
37455;SDS011;23316;50.718;7.328;2022-07-26T08:42:32;11.38;;;3.70;;
37455;SDS011;23316;50.718;7.328;2022-07-26T08:45:01;8.70;;;3.25;;
37455;SDS011;23316;50.718;7.328;2022-07-26T08:47:29;10.38;;;3.83;;
37455;SDS011;23316;50.718;7.328;2022-07-26T08:49:56;7.05;;;3.45;;
37455;SDS011;23316;50.718;7.328;2022-07-26T08:52:24;8.80;;;3.30;;
37455;SDS011;23316;50.718;7.328;2022-07-26T08:54:51;11.90;;;3.47;;
37455;SDS011;23316;50.718;7.328;2022-07-26T08:57:19;9.55;;;3.10;;
37455;SDS011;23316;50.718;7.328;2022-07-26T08:59:47;11.07;;;3.97;;
37455;SDS011;23316;50.718;7.328;2022-07-26T09:02:43;7.85;;;3.42;;
37455;SDS011;23316;50.718;7.328;2022-07-26T09:05:11;8.45;;;3.05;;
37455;SDS011;23316;50.718;7.328;2022-07-26T09:07:38;14.55;;;4.03;;
37455;SDS011;23316;50.718;7.328;2022-07-26T09:10:08;12.05;;;3.97;;
37455;SDS011;23316;50.718;7.328;2022-07-26T09:12:37;9.30;;;3.50;;
37455;SDS011;23316;50.718;7.328;2022-07-26T09:15:06;7.57;;;3.38;;
37455;SDS011;23316;50.718;7.328;2022-07-26T09:17:45;6.00;;;2.80;;
37455;SDS011;23316;50.718;7.328;2022-07-26T09:20:16;6.72;;;2.80;;
37455;SDS011;23316;50.718;7.328;2022-07-26T09:22:59;9.80;;;3.42;;
37455;SDS011;23316;50.718;7.328;2022-07-26T09:25:29;8.05;;;3.63;;
37455;SDS011;23316;50.718;7.328;2022-07-26T09:27:58;8.65;;;3.50;;
37455;SDS011;23316;50.718;7.328;2022-07-26T09:30:26;7.97;;;4.00;;
37455;SDS011;23316;50.718;7.328;2022-07-26T09:33:00;12.25;;;5.97;;
37455;SDS011;23316;50.718;7.328;2022-07-26T09:35:29;12.80;;;6.40;;
37455;SDS011;23316;50.718;7.328;2022-07-26T09:37:59;12.85;;;6.20;;
37455;SDS011;23316;50.718;7.328;2022-07-26T09:40:31;10.10;;;5.47;;
37455;SDS011;23316;50.718;7.328;2022-07-26T09:43:01;12.53;;;6.13;;
37455;SDS011;23316;50.718;7.328;2022-07-26T09:45:30;11.05;;;6.30;;
37455;SDS011;23316;50.718;7.328;2022-07-26T09:48:00;8.80;;;4.60;;
37455;SDS011;23316;50.718;7.328;2022-07-26T09:50:29;8.73;;;4.47;;
37455;SDS011;23316;50.718;7.328;2022-07-26T09:53:01;12.70;;;5.13;;
37455;SDS011;23316;50.718;7.328;2022-07-26T09:55:32;8.70;;;4.03;;
37455;SDS011;23316;50.718;7.328;2022-07-26T09:58:00;8.32;;;4.63;;
37455;SDS011;23316;50.718;7.328;2022-07-26T10:00:31;12.55;;;4.97;;
37455;SDS011;23316;50.718;7.328;2022-07-26T10:03:00;8.38;;;4.72;;
37455;SDS011;23316;50.718;7.328;2022-07-26T10:05:28;9.52;;;4.78;;
37455;SDS011;23316;50.718;7.328;2022-07-26T10:07:57;10.82;;;5.05;;
37455;SDS011;23316;50.718;7.328;2022-07-26T10:10:27;10.63;;;4.82;;
37455;SDS011;23316;50.718;7.328;2022-07-26T10:12:57;9.88;;;5.47;;
37455;SDS011;23316;50.718;7.328;2022-07-26T10:15:33;11.65;;;5.65;;
37455;SDS011;23316;50.718;7.328;2022-07-26T10:18:04;6.90;;;4.75;;
37455;SDS011;23316;50.718;7.328;2022-07-26T10:23:31;11.70;;;5.53;;
37455;SDS011;23316;50.718;7.328;2022-07-26T10:26:00;16.63;;;6.47;;
37455;SDS011;23316;50.718;7.328;2022-07-26T10:28:29;12.82;;;6.93;;
37455;SDS011;23316;50.718;7.328;2022-07-26T10:33:59;9.25;;;5.10;;
37455;SDS011;23316;50.718;7.328;2022-07-26T10:36:28;9.13;;;5.35;;
37455;SDS011;23316;50.718;7.328;2022-07-26T10:38:58;11.85;;;5.63;;
37455;SDS011;23316;50.718;7.328;2022-07-26T10:41:35;11.73;;;5.40;;
37455;SDS011;23316;50.718;7.328;2022-07-26T10:44:13;7.38;;;5.32;;
37455;SDS011;23316;50.718;7.328;2022-07-26T10:49:39;9.85;;;5.38;;
37455;SDS011;23316;50.718;7.328;2022-07-26T10:52:15;13.13;;;6.30;;
37455;SDS011;23316;50.718;7.328;2022-07-26T10:57:38;11.65;;;5.45;;
37455;SDS011;23316;50.718;7.328;2022-07-26T11:00:10;9.65;;;4.55;;
37455;SDS011;23316;50.718;7.328;2022-07-26T11:02:41;12.95;;;6.55;;
37455;SDS011;23316;50.718;7.328;2022-07-26T11:05:11;16.38;;;7.20;;
37455;SDS011;23316;50.718;7.328;2022-07-26T11:07:54;18.35;;;6.38;;
37455;SDS011;23316;50.718;7.328;2022-07-26T11:10:25;8.38;;;5.63;;
37455;SDS011;23316;50.718;7.328;2022-07-26T11:13:02;11.50;;;6.68;;
37455;SDS011;23316;50.718;7.328;2022-07-26T11:15:31;10.27;;;5.32;;
37455;SDS011;23316;50.718;7.328;2022-07-26T11:18:07;9.35;;;5.97;;
37455;SDS011;23316;50.718;7.328;2022-07-26T11:20:57;8.63;;;5.40;;
37455;SDS011;23316;50.718;7.328;2022-07-26T11:23:35;7.88;;;4.30;;
37455;SDS011;23316;50.718;7.328;2022-07-26T11:26:05;6.00;;;4.60;;
37455;SDS011;23316;50.718;7.328;2022-07-26T11:28:45;14.43;;;5.32;;
37455;SDS011;23316;50.718;7.328;2022-07-26T11:31:21;11.13;;;5.65;;
37455;SDS011;23316;50.718;7.328;2022-07-26T11:33:51;9.68;;;5.07;;
37455;SDS011;23316;50.718;7.328;2022-07-26T11:36:31;7.70;;;4.93;;
37455;SDS011;23316;50.718;7.328;2022-07-26T11:39:03;8.50;;;6.23;;
37455;SDS011;23316;50.718;7.328;2022-07-26T11:41:32;12.68;;;5.45;;
37455;SDS011;23316;50.718;7.328;2022-07-26T11:43:59;8.38;;;5.07;;
37455;SDS011;23316;50.718;7.328;2022-07-26T11:46:32;6.22;;;4.90;;
37455;SDS011;23316;50.718;7.328;2022-07-26T11:49:13;9.98;;;4.72;;
37455;SDS011;23316;50.718;7.328;2022-07-26T11:51:49;8.63;;;4.57;;
37455;SDS011;23316;50.718;7.328;2022-07-26T11:54:18;5.40;;;3.58;;
37455;SDS011;23316;50.718;7.328;2022-07-26T11:56:49;6.25;;;2.97;;
37455;SDS011;23316;50.718;7.328;2022-07-26T11:59:18;6.20;;;3.00;;
37455;SDS011;23316;50.718;7.328;2022-07-26T12:01:46;4.47;;;2.28;;
37455;SDS011;23316;50.718;7.328;2022-07-26T12:04:17;7.40;;;2.88;;
37455;SDS011;23316;50.718;7.328;2022-07-26T12:06:46;12.05;;;2.15;;
37455;SDS011;23316;50.718;7.328;2022-07-26T12:09:27;6.32;;;2.30;;
37455;SDS011;23316;50.718;7.328;2022-07-26T12:12:00;2.45;;;1.85;;
37455;SDS011;23316;50.718;7.328;2022-07-26T12:14:29;3.85;;;1.60;;
37455;SDS011;23316;50.718;7.328;2022-07-26T12:17:08;5.15;;;2.38;;
37455;SDS011;23316;50.718;7.328;2022-07-26T12:19:36;2.28;;;1.70;;
37455;SDS011;23316;50.718;7.328;2022-07-26T12:22:07;3.90;;;1.88;;
37455;SDS011;23316;50.718;7.328;2022-07-26T12:24:39;4.80;;;2.22;;
37455;SDS011;23316;50.718;7.328;2022-07-26T12:27:09;2.80;;;1.95;;
37455;SDS011;23316;50.718;7.328;2022-07-26T12:29:38;6.45;;;2.00;;
37455;SDS011;23316;50.718;7.328;2022-07-26T12:32:08;4.82;;;1.90;;
37455;SDS011;23316;50.718;7.328;2022-07-26T12:34:38;8.82;;;2.55;;
37455;SDS011;23316;50.718;7.328;2022-07-26T12:37:11;2.47;;;1.35;;
37455;SDS011;23316;50.718;7.328;2022-07-26T12:39:57;3.80;;;1.98;;
37455;SDS011;23316;50.718;7.328;2022-07-26T12:42:27;5.47;;;2.10;;
37455;SDS011;23316;50.718;7.328;2022-07-26T12:44:56;3.65;;;1.90;;
37455;SDS011;23316;50.718;7.328;2022-07-26T12:47:24;7.75;;;2.70;;
37455;SDS011;23316;50.718;7.328;2022-07-26T12:49:52;16.73;;;3.50;;
37455;SDS011;23316;50.718;7.328;2022-07-26T12:52:20;12.80;;;3.47;;
37455;SDS011;23316;50.718;7.328;2022-07-26T12:54:50;7.93;;;2.85;;
37455;SDS011;23316;50.718;7.328;2022-07-26T12:57:19;6.28;;;2.50;;
37455;SDS011;23316;50.718;7.328;2022-07-26T12:59:47;5.68;;;3.20;;
37455;SDS011;23316;50.718;7.328;2022-07-26T13:02:15;6.90;;;3.10;;
37455;SDS011;23316;50.718;7.328;2022-07-26T13:04:44;10.07;;;4.18;;
37455;SDS011;23316;50.718;7.328;2022-07-26T13:07:12;8.30;;;3.83;;
37455;SDS011;23316;50.718;7.328;2022-07-26T13:09:40;10.25;;;3.55;;
37455;SDS011;23316;50.718;7.328;2022-07-26T13:12:09;5.35;;;3.15;;
37455;SDS011;23316;50.718;7.328;2022-07-26T13:14:38;9.40;;;3.35;;
37455;SDS011;23316;50.718;7.328;2022-07-26T13:17:06;4.97;;;3.50;;
37455;SDS011;23316;50.718;7.328;2022-07-26T13:19:35;5.45;;;3.40;;
37455;SDS011;23316;50.718;7.328;2022-07-26T13:22:03;5.55;;;3.20;;
37455;SDS011;23316;50.718;7.328;2022-07-26T13:24:32;9.10;;;3.35;;
37455;SDS011;23316;50.718;7.328;2022-07-26T13:27:01;6.32;;;3.25;;
37455;SDS011;23316;50.718;7.328;2022-07-26T13:29:31;5.53;;;3.20;;
37455;SDS011;23316;50.718;7.328;2022-07-26T13:31:59;10.07;;;3.08;;
37455;SDS011;23316;50.718;7.328;2022-07-26T13:34:27;9.52;;;3.33;;
37455;SDS011;23316;50.718;7.328;2022-07-26T13:36:55;3.83;;;2.40;;
37455;SDS011;23316;50.718;7.328;2022-07-26T13:39:24;5.20;;;2.13;;
37455;SDS011;23316;50.718;7.328;2022-07-26T13:41:52;6.80;;;2.55;;
37455;SDS011;23316;50.718;7.328;2022-07-26T13:44:19;6.80;;;2.17;;
37455;SDS011;23316;50.718;7.328;2022-07-26T13:46:49;4.32;;;2.15;;
37455;SDS011;23316;50.718;7.328;2022-07-26T13:49:17;5.60;;;1.98;;
37455;SDS011;23316;50.718;7.328;2022-07-26T13:51:44;3.53;;;1.75;;
37455;SDS011;23316;50.718;7.328;2022-07-26T13:54:24;4.43;;;1.67;;
37455;SDS011;23316;50.718;7.328;2022-07-26T13:56:53;3.63;;;2.05;;
37455;SDS011;23316;50.718;7.328;2022-07-26T13:59:21;6.22;;;2.10;;
37455;SDS011;23316;50.718;7.328;2022-07-26T14:01:50;8.48;;;1.88;;
37455;SDS011;23316;50.718;7.328;2022-07-26T14:04:18;3.70;;;1.88;;
37455;SDS011;23316;50.718;7.328;2022-07-26T14:06:46;5.45;;;1.90;;
37455;SDS011;23316;50.718;7.328;2022-07-26T14:09:14;5.95;;;2.47;;
37455;SDS011;23316;50.718;7.328;2022-07-26T14:11:42;6.25;;;2.75;;
37455;SDS011;23316;50.718;7.328;2022-07-26T14:14:10;6.57;;;2.40;;
37455;SDS011;23316;50.718;7.328;2022-07-26T14:16:38;14.60;;;2.95;;
37455;SDS011;23316;50.718;7.328;2022-07-26T14:19:07;6.45;;;3.03;;
37455;SDS011;23316;50.718;7.328;2022-07-26T14:21:35;7.28;;;2.33;;
37455;SDS011;23316;50.718;7.328;2022-07-26T14:24:03;31.42;;;4.03;;
37455;SDS011;23316;50.718;7.328;2022-07-26T14:26:31;16.25;;;3.05;;
37455;SDS011;23316;50.718;7.328;2022-07-26T14:28:58;40.72;;;3.67;;
37455;SDS011;23316;50.718;7.328;2022-07-26T14:31:26;36.80;;;3.35;;
37455;SDS011;23316;50.718;7.328;2022-07-26T14:33:53;10.00;;;2.40;;
37455;SDS011;23316;50.718;7.328;2022-07-26T14:36:22;54.00;;;4.03;;
37455;SDS011;23316;50.718;7.328;2022-07-26T14:38:49;21.80;;;3.45;;
37455;SDS011;23316;50.718;7.328;2022-07-26T14:41:17;19.38;;;2.78;;
37455;SDS011;23316;50.718;7.328;2022-07-26T14:43:44;8.80;;;2.25;;
37455;SDS011;23316;50.718;7.328;2022-07-26T14:46:12;37.90;;;4.22;;
37455;SDS011;23316;50.718;7.328;2022-07-26T14:48:39;4.60;;;2.28;;
37455;SDS011;23316;50.718;7.328;2022-07-26T14:51:07;5.10;;;2.25;;
37455;SDS011;23316;50.718;7.328;2022-07-26T14:53:36;4.55;;;2.25;;
37455;SDS011;23316;50.718;7.328;2022-07-26T14:56:05;4.50;;;2.35;;
37455;SDS011;23316;50.718;7.328;2022-07-26T14:58:33;6.68;;;2.50;;
37455;SDS011;23316;50.718;7.328;2022-07-26T15:01:01;3.42;;;2.22;;
37455;SDS011;23316;50.718;7.328;2022-07-26T15:03:28;6.43;;;2.63;;
37455;SDS011;23316;50.718;7.328;2022-07-26T15:05:58;6.93;;;2.15;;
37455;SDS011;23316;50.718;7.328;2022-07-26T15:08:25;5.75;;;2.50;;
37455;SDS011;23316;50.718;7.328;2022-07-26T15:10:54;5.55;;;2.30;;